sensor_id;sensor_type;location;lat;lon;timestamp;P1;durP1;ratioP1;P2;durP2;ratioP2
9076;SDS011;4574;51.072;17.174;2022-11-15T00:02:28;63.77;;;34.87;;
9076;SDS011;4574;51.072;17.174;2022-11-15T00:04:56;63.77;;;34.60;;
9076;SDS011;4574;51.072;17.174;2022-11-15T00:07:25;59.73;;;33.17;;
9076;SDS011;4574;51.072;17.174;2022-11-15T00:10:13;63.40;;;33.47;;
9076;SDS011;4574;51.072;17.174;2022-11-15T00:12:42;63.67;;;34.17;;
9076;SDS011;4574;51.072;17.174;2022-11-15T00:15:10;63.07;;;35.27;;
9076;SDS011;4574;51.072;17.174;2022-11-15T00:17:40;67.50;;;36.43;;
9076;SDS011;4574;51.072;17.174;2022-11-15T00:20:09;66.87;;;35.17;;
9076;SDS011;4574;51.072;17.174;2022-11-15T00:22:38;58.33;;;34.30;;
9076;SDS011;4574;51.072;17.174;2022-11-15T00:25:07;66.70;;;35.77;;
9076;SDS011;4574;51.072;17.174;2022-11-15T00:27:35;61.40;;;33.53;;
9076;SDS011;4574;51.072;17.174;2022-11-15T00:30:04;66.93;;;35.17;;
9076;SDS011;4574;51.072;17.174;2022-11-15T00:32:33;59.57;;;35.13;;
9076;SDS011;4574;51.072;17.174;2022-11-15T00:35:03;60.77;;;34.70;;
9076;SDS011;4574;51.072;17.174;2022-11-15T00:37:33;61.93;;;33.90;;
9076;SDS011;4574;51.072;17.174;2022-11-15T00:40:01;62.47;;;35.03;;
9076;SDS011;4574;51.072;17.174;2022-11-15T00:42:29;66.37;;;36.17;;
9076;SDS011;4574;51.072;17.174;2022-11-15T00:44:58;59.70;;;34.30;;
9076;SDS011;4574;51.072;17.174;2022-11-15T00:47:26;62.93;;;35.23;;
9076;SDS011;4574;51.072;17.174;2022-11-15T00:49:55;63.33;;;34.97;;
9076;SDS011;4574;51.072;17.174;2022-11-15T00:52:24;57.30;;;33.20;;
9076;SDS011;4574;51.072;17.174;2022-11-15T00:54:53;57.30;;;33.47;;
9076;SDS011;4574;51.072;17.174;2022-11-15T00:57:21;65.33;;;34.03;;
9076;SDS011;4574;51.072;17.174;2022-11-15T00:59:50;61.00;;;34.57;;
9076;SDS011;4574;51.072;17.174;2022-11-15T01:02:18;58.73;;;33.13;;
9076;SDS011;4574;51.072;17.174;2022-11-15T01:04:48;58.43;;;32.93;;
9076;SDS011;4574;51.072;17.174;2022-11-15T01:07:16;58.43;;;32.37;;
9076;SDS011;4574;51.072;17.174;2022-11-15T01:09:46;59.57;;;32.93;;
9076;SDS011;4574;51.072;17.174;2022-11-15T01:12:15;58.87;;;32.63;;
9076;SDS011;4574;51.072;17.174;2022-11-15T01:14:43;62.03;;;33.10;;
9076;SDS011;4574;51.072;17.174;2022-11-15T01:17:11;55.43;;;32.07;;
9076;SDS011;4574;51.072;17.174;2022-11-15T01:19:40;58.40;;;31.83;;
9076;SDS011;4574;51.072;17.174;2022-11-15T01:22:08;53.47;;;31.50;;
9076;SDS011;4574;51.072;17.174;2022-11-15T01:24:37;58.30;;;32.10;;
9076;SDS011;4574;51.072;17.174;2022-11-15T01:27:07;59.03;;;33.23;;
9076;SDS011;4574;51.072;17.174;2022-11-15T01:29:35;58.50;;;33.27;;
9076;SDS011;4574;51.072;17.174;2022-11-15T01:32:04;57.87;;;31.33;;
9076;SDS011;4574;51.072;17.174;2022-11-15T01:34:32;55.50;;;31.37;;
9076;SDS011;4574;51.072;17.174;2022-11-15T01:37:01;57.10;;;31.13;;
9076;SDS011;4574;51.072;17.174;2022-11-15T01:39:30;60.73;;;32.07;;
9076;SDS011;4574;51.072;17.174;2022-11-15T01:41:58;57.53;;;31.87;;
9076;SDS011;4574;51.072;17.174;2022-11-15T01:44:39;58.63;;;31.73;;
9076;SDS011;4574;51.072;17.174;2022-11-15T01:47:12;54.97;;;31.30;;
9076;SDS011;4574;51.072;17.174;2022-11-15T01:49:46;53.87;;;32.23;;
9076;SDS011;4574;51.072;17.174;2022-11-15T01:52:20;55.60;;;32.13;;
9076;SDS011;4574;51.072;17.174;2022-11-15T01:54:53;53.93;;;30.97;;
9076;SDS011;4574;51.072;17.174;2022-11-15T01:57:24;57.83;;;32.90;;
9076;SDS011;4574;51.072;17.174;2022-11-15T01:59:54;57.30;;;31.10;;
9076;SDS011;4574;51.072;17.174;2022-11-15T02:02:24;55.00;;;31.40;;
9076;SDS011;4574;51.072;17.174;2022-11-15T02:04:53;62.20;;;33.17;;
9076;SDS011;4574;51.072;17.174;2022-11-15T02:07:21;57.97;;;32.33;;
9076;SDS011;4574;51.072;17.174;2022-11-15T02:09:50;54.17;;;30.77;;
9076;SDS011;4574;51.072;17.174;2022-11-15T02:12:20;60.43;;;32.13;;
9076;SDS011;4574;51.072;17.174;2022-11-15T02:14:50;59.23;;;32.10;;
9076;SDS011;4574;51.072;17.174;2022-11-15T02:17:26;57.17;;;31.77;;
9076;SDS011;4574;51.072;17.174;2022-11-15T02:23:04;52.23;;;30.47;;
9076;SDS011;4574;51.072;17.174;2022-11-15T02:25:57;60.23;;;32.77;;
9076;SDS011;4574;51.072;17.174;2022-11-15T02:28:49;66.87;;;35.43;;
9076;SDS011;4574;51.072;17.174;2022-11-15T02:31:28;56.60;;;32.17;;
9076;SDS011;4574;51.072;17.174;2022-11-15T02:34:04;57.30;;;31.30;;
9076;SDS011;4574;51.072;17.174;2022-11-15T02:36:38;52.50;;;29.00;;
9076;SDS011;4574;51.072;17.174;2022-11-15T02:39:14;59.93;;;32.10;;
9076;SDS011;4574;51.072;17.174;2022-11-15T02:41:50;54.60;;;31.03;;
9076;SDS011;4574;51.072;17.174;2022-11-15T02:44:23;64.97;;;36.47;;
9076;SDS011;4574;51.072;17.174;2022-11-15T02:46:56;93.83;;;43.60;;
9076;SDS011;4574;51.072;17.174;2022-11-15T02:49:43;89.33;;;42.50;;
9076;SDS011;4574;51.072;17.174;2022-11-15T02:52:14;80.70;;;39.07;;
9076;SDS011;4574;51.072;17.174;2022-11-15T02:54:52;73.17;;;36.50;;
9076;SDS011;4574;51.072;17.174;2022-11-15T02:57:23;66.47;;;35.47;;
9076;SDS011;4574;51.072;17.174;2022-11-15T03:00:04;79.83;;;37.40;;
9076;SDS011;4574;51.072;17.174;2022-11-15T03:05:44;93.83;;;41.83;;
9076;SDS011;4574;51.072;17.174;2022-11-15T03:08:21;81.40;;;35.77;;
9076;SDS011;4574;51.072;17.174;2022-11-15T03:10:56;67.93;;;35.23;;
9076;SDS011;4574;51.072;17.174;2022-11-15T03:13:33;54.97;;;30.47;;
9076;SDS011;4574;51.072;17.174;2022-11-15T03:16:08;61.60;;;30.10;;
9076;SDS011;4574;51.072;17.174;2022-11-15T03:18:42;54.53;;;29.03;;
9076;SDS011;4574;51.072;17.174;2022-11-15T03:21:17;48.87;;;28.50;;
9076;SDS011;4574;51.072;17.174;2022-11-15T03:23:49;45.50;;;26.50;;
9076;SDS011;4574;51.072;17.174;2022-11-15T03:26:20;51.30;;;27.53;;
9076;SDS011;4574;51.072;17.174;2022-11-15T03:28:52;45.90;;;26.93;;
9076;SDS011;4574;51.072;17.174;2022-11-15T03:31:25;43.63;;;25.77;;
9076;SDS011;4574;51.072;17.174;2022-11-15T03:34:21;48.87;;;29.10;;
9076;SDS011;4574;51.072;17.174;2022-11-15T03:36:55;51.30;;;29.87;;
9076;SDS011;4574;51.072;17.174;2022-11-15T03:39:24;53.10;;;28.73;;
9076;SDS011;4574;51.072;17.174;2022-11-15T03:41:56;47.33;;;27.73;;
9076;SDS011;4574;51.072;17.174;2022-11-15T03:44:35;45.07;;;26.77;;
9076;SDS011;4574;51.072;17.174;2022-11-15T03:47:09;61.60;;;35.17;;
9076;SDS011;4574;51.072;17.174;2022-11-15T03:49:45;52.40;;;31.63;;
9076;SDS011;4574;51.072;17.174;2022-11-15T03:52:20;44.03;;;27.80;;
9076;SDS011;4574;51.072;17.174;2022-11-15T03:54:50;39.57;;;24.33;;
9076;SDS011;4574;51.072;17.174;2022-11-15T03:57:20;43.63;;;24.67;;
9076;SDS011;4574;51.072;17.174;2022-11-15T03:59:48;42.53;;;24.47;;
9076;SDS011;4574;51.072;17.174;2022-11-15T04:02:17;43.13;;;23.83;;
9076;SDS011;4574;51.072;17.174;2022-11-15T04:04:45;41.37;;;23.93;;
9076;SDS011;4574;51.072;17.174;2022-11-15T04:07:13;44.30;;;25.53;;
9076;SDS011;4574;51.072;17.174;2022-11-15T04:09:44;48.83;;;27.67;;
9076;SDS011;4574;51.072;17.174;2022-11-15T04:12:32;59.40;;;30.93;;
9076;SDS011;4574;51.072;17.174;2022-11-15T04:15:02;56.60;;;30.00;;
9076;SDS011;4574;51.072;17.174;2022-11-15T04:17:35;47.10;;;26.43;;
9076;SDS011;4574;51.072;17.174;2022-11-15T04:20:06;54.00;;;30.90;;
9076;SDS011;4574;51.072;17.174;2022-11-15T04:22:54;56.67;;;30.07;;
9076;SDS011;4574;51.072;17.174;2022-11-15T04:25:57;50.97;;;28.50;;
9076;SDS011;4574;51.072;17.174;2022-11-15T04:28:28;48.17;;;27.80;;
9076;SDS011;4574;51.072;17.174;2022-11-15T04:30:57;51.03;;;26.90;;
9076;SDS011;4574;51.072;17.174;2022-11-15T04:33:26;47.77;;;26.20;;
9076;SDS011;4574;51.072;17.174;2022-11-15T04:35:55;45.57;;;26.83;;
9076;SDS011;4574;51.072;17.174;2022-11-15T04:38:49;47.53;;;26.17;;
9076;SDS011;4574;51.072;17.174;2022-11-15T04:41:19;42.40;;;25.43;;
9076;SDS011;4574;51.072;17.174;2022-11-15T04:43:47;42.37;;;25.27;;
9076;SDS011;4574;51.072;17.174;2022-11-15T04:46:16;46.23;;;25.60;;
9076;SDS011;4574;51.072;17.174;2022-11-15T04:48:45;41.97;;;24.33;;
9076;SDS011;4574;51.072;17.174;2022-11-15T04:51:13;47.57;;;26.67;;
9076;SDS011;4574;51.072;17.174;2022-11-15T04:53:41;45.27;;;25.03;;
9076;SDS011;4574;51.072;17.174;2022-11-15T04:56:10;49.03;;;25.33;;
9076;SDS011;4574;51.072;17.174;2022-11-15T04:58:40;50.67;;;27.57;;
9076;SDS011;4574;51.072;17.174;2022-11-15T05:01:08;48.73;;;27.87;;
9076;SDS011;4574;51.072;17.174;2022-11-15T05:03:38;43.13;;;25.43;;
9076;SDS011;4574;51.072;17.174;2022-11-15T05:06:24;47.00;;;26.33;;
9076;SDS011;4574;51.072;17.174;2022-11-15T05:08:52;47.83;;;26.07;;
9076;SDS011;4574;51.072;17.174;2022-11-15T05:11:22;47.03;;;27.40;;
9076;SDS011;4574;51.072;17.174;2022-11-15T05:13:52;51.87;;;27.30;;
9076;SDS011;4574;51.072;17.174;2022-11-15T05:16:21;42.17;;;25.73;;
9076;SDS011;4574;51.072;17.174;2022-11-15T05:18:50;46.57;;;25.73;;
9076;SDS011;4574;51.072;17.174;2022-11-15T05:21:19;42.13;;;24.70;;
9076;SDS011;4574;51.072;17.174;2022-11-15T05:23:48;45.10;;;26.40;;
9076;SDS011;4574;51.072;17.174;2022-11-15T05:26:17;41.33;;;25.30;;
9076;SDS011;4574;51.072;17.174;2022-11-15T05:28:46;43.87;;;25.97;;
9076;SDS011;4574;51.072;17.174;2022-11-15T05:31:16;44.83;;;24.87;;
9076;SDS011;4574;51.072;17.174;2022-11-15T05:33:44;43.93;;;24.90;;
9076;SDS011;4574;51.072;17.174;2022-11-15T05:36:14;44.73;;;25.83;;
9076;SDS011;4574;51.072;17.174;2022-11-15T05:38:46;43.20;;;24.93;;
9076;SDS011;4574;51.072;17.174;2022-11-15T05:41:17;37.77;;;24.03;;
9076;SDS011;4574;51.072;17.174;2022-11-15T05:43:48;38.30;;;23.60;;
9076;SDS011;4574;51.072;17.174;2022-11-15T05:46:19;37.37;;;24.10;;
9076;SDS011;4574;51.072;17.174;2022-11-15T05:48:48;39.90;;;25.23;;
9076;SDS011;4574;51.072;17.174;2022-11-15T05:51:19;41.27;;;24.60;;
9076;SDS011;4574;51.072;17.174;2022-11-15T05:53:49;44.80;;;25.50;;
9076;SDS011;4574;51.072;17.174;2022-11-15T05:56:20;42.27;;;25.83;;
9076;SDS011;4574;51.072;17.174;2022-11-15T05:58:48;45.00;;;26.60;;
9076;SDS011;4574;51.072;17.174;2022-11-15T06:01:25;45.47;;;26.07;;
9076;SDS011;4574;51.072;17.174;2022-11-15T06:03:55;45.13;;;26.13;;
9076;SDS011;4574;51.072;17.174;2022-11-15T06:06:23;45.50;;;24.93;;
9076;SDS011;4574;51.072;17.174;2022-11-15T06:08:52;45.83;;;27.77;;
9076;SDS011;4574;51.072;17.174;2022-11-15T06:11:20;49.20;;;27.77;;
9076;SDS011;4574;51.072;17.174;2022-11-15T06:13:49;48.53;;;27.30;;
9076;SDS011;4574;51.072;17.174;2022-11-15T06:16:17;42.23;;;27.07;;
9076;SDS011;4574;51.072;17.174;2022-11-15T06:18:47;48.47;;;29.17;;
9076;SDS011;4574;51.072;17.174;2022-11-15T06:21:15;52.07;;;29.60;;
9076;SDS011;4574;51.072;17.174;2022-11-15T06:23:44;47.13;;;27.40;;
9076;SDS011;4574;51.072;17.174;2022-11-15T06:26:12;46.90;;;27.73;;
9076;SDS011;4574;51.072;17.174;2022-11-15T06:28:40;45.57;;;29.47;;
9076;SDS011;4574;51.072;17.174;2022-11-15T06:31:09;56.57;;;32.77;;
9076;SDS011;4574;51.072;17.174;2022-11-15T06:33:39;50.07;;;29.30;;
9076;SDS011;4574;51.072;17.174;2022-11-15T06:36:10;54.07;;;32.80;;
9076;SDS011;4574;51.072;17.174;2022-11-15T06:38:43;52.27;;;31.93;;
9076;SDS011;4574;51.072;17.174;2022-11-15T06:41:12;51.67;;;31.50;;
9076;SDS011;4574;51.072;17.174;2022-11-15T06:43:41;50.13;;;30.40;;
9076;SDS011;4574;51.072;17.174;2022-11-15T06:46:10;51.00;;;30.47;;
9076;SDS011;4574;51.072;17.174;2022-11-15T06:48:38;54.53;;;30.03;;
9076;SDS011;4574;51.072;17.174;2022-11-15T06:51:07;55.73;;;31.47;;
9076;SDS011;4574;51.072;17.174;2022-11-15T06:53:36;60.70;;;33.60;;
9076;SDS011;4574;51.072;17.174;2022-11-15T06:56:05;53.47;;;31.50;;
9076;SDS011;4574;51.072;17.174;2022-11-15T06:58:35;46.90;;;29.43;;
9076;SDS011;4574;51.072;17.174;2022-11-15T07:01:04;47.77;;;27.20;;
9076;SDS011;4574;51.072;17.174;2022-11-15T07:03:34;46.43;;;26.43;;
9076;SDS011;4574;51.072;17.174;2022-11-15T07:06:04;45.90;;;28.13;;
9076;SDS011;4574;51.072;17.174;2022-11-15T07:08:33;42.80;;;27.67;;
9076;SDS011;4574;51.072;17.174;2022-11-15T07:11:04;46.07;;;27.10;;
9076;SDS011;4574;51.072;17.174;2022-11-15T07:13:34;49.90;;;29.33;;
9076;SDS011;4574;51.072;17.174;2022-11-15T07:16:04;51.73;;;29.00;;
9076;SDS011;4574;51.072;17.174;2022-11-15T07:18:34;47.17;;;29.30;;
9076;SDS011;4574;51.072;17.174;2022-11-15T07:21:03;54.47;;;32.53;;
9076;SDS011;4574;51.072;17.174;2022-11-15T07:23:35;55.13;;;30.73;;
9076;SDS011;4574;51.072;17.174;2022-11-15T07:26:05;54.17;;;29.43;;
9076;SDS011;4574;51.072;17.174;2022-11-15T07:28:34;55.17;;;31.40;;
9076;SDS011;4574;51.072;17.174;2022-11-15T07:31:03;55.57;;;32.83;;
9076;SDS011;4574;51.072;17.174;2022-11-15T07:33:33;87.87;;;44.60;;
9076;SDS011;4574;51.072;17.174;2022-11-15T07:36:02;75.87;;;39.50;;
9076;SDS011;4574;51.072;17.174;2022-11-15T07:38:31;61.70;;;34.67;;
9076;SDS011;4574;51.072;17.174;2022-11-15T07:41:09;67.67;;;33.00;;
9076;SDS011;4574;51.072;17.174;2022-11-15T07:43:37;52.23;;;30.53;;
9076;SDS011;4574;51.072;17.174;2022-11-15T07:46:06;50.67;;;30.47;;
9076;SDS011;4574;51.072;17.174;2022-11-15T07:48:36;59.00;;;32.63;;
9076;SDS011;4574;51.072;17.174;2022-11-15T07:51:11;78.47;;;43.10;;
9076;SDS011;4574;51.072;17.174;2022-11-15T07:53:41;77.80;;;40.43;;
9076;SDS011;4574;51.072;17.174;2022-11-15T07:56:11;67.37;;;39.40;;
9076;SDS011;4574;51.072;17.174;2022-11-15T07:58:40;64.87;;;37.43;;
9076;SDS011;4574;51.072;17.174;2022-11-15T08:01:09;60.53;;;35.77;;
9076;SDS011;4574;51.072;17.174;2022-11-15T08:03:38;69.77;;;37.03;;
9076;SDS011;4574;51.072;17.174;2022-11-15T08:06:07;54.47;;;32.87;;
9076;SDS011;4574;51.072;17.174;2022-11-15T08:08:35;54.03;;;32.53;;
9076;SDS011;4574;51.072;17.174;2022-11-15T08:11:03;62.57;;;35.93;;
9076;SDS011;4574;51.072;17.174;2022-11-15T08:13:33;62.73;;;36.20;;
9076;SDS011;4574;51.072;17.174;2022-11-15T08:16:02;71.03;;;37.03;;
9076;SDS011;4574;51.072;17.174;2022-11-15T08:18:32;67.50;;;35.70;;
9076;SDS011;4574;51.072;17.174;2022-11-15T08:21:00;61.80;;;36.03;;
9076;SDS011;4574;51.072;17.174;2022-11-15T08:23:29;57.07;;;33.60;;
9076;SDS011;4574;51.072;17.174;2022-11-15T08:25:59;56.87;;;33.83;;
9076;SDS011;4574;51.072;17.174;2022-11-15T08:28:29;57.80;;;33.77;;
9076;SDS011;4574;51.072;17.174;2022-11-15T08:30:59;56.70;;;33.27;;
9076;SDS011;4574;51.072;17.174;2022-11-15T08:33:27;54.80;;;31.93;;
9076;SDS011;4574;51.072;17.174;2022-11-15T08:35:57;55.73;;;32.87;;
9076;SDS011;4574;51.072;17.174;2022-11-15T08:38:25;51.33;;;31.50;;
9076;SDS011;4574;51.072;17.174;2022-11-15T08:40:59;54.23;;;31.97;;
9076;SDS011;4574;51.072;17.174;2022-11-15T08:43:29;53.00;;;30.77;;
9076;SDS011;4574;51.072;17.174;2022-11-15T08:45:59;51.83;;;30.57;;
9076;SDS011;4574;51.072;17.174;2022-11-15T08:48:27;53.37;;;30.83;;
9076;SDS011;4574;51.072;17.174;2022-11-15T08:50:57;55.13;;;34.20;;
9076;SDS011;4574;51.072;17.174;2022-11-15T08:53:26;58.50;;;33.40;;
9076;SDS011;4574;51.072;17.174;2022-11-15T08:55:54;54.77;;;33.20;;
9076;SDS011;4574;51.072;17.174;2022-11-15T08:58:22;56.93;;;34.47;;
9076;SDS011;4574;51.072;17.174;2022-11-15T09:00:51;55.40;;;34.00;;
9076;SDS011;4574;51.072;17.174;2022-11-15T09:03:21;56.93;;;34.07;;
9076;SDS011;4574;51.072;17.174;2022-11-15T09:05:53;59.20;;;35.93;;
9076;SDS011;4574;51.072;17.174;2022-11-15T09:08:23;60.07;;;36.07;;
9076;SDS011;4574;51.072;17.174;2022-11-15T09:11:12;64.93;;;37.50;;
9076;SDS011;4574;51.072;17.174;2022-11-15T09:13:42;68.67;;;40.20;;
9076;SDS011;4574;51.072;17.174;2022-11-15T09:16:11;64.67;;;38.40;;
9076;SDS011;4574;51.072;17.174;2022-11-15T09:18:43;59.37;;;37.67;;
9076;SDS011;4574;51.072;17.174;2022-11-15T09:21:12;61.23;;;36.17;;
9076;SDS011;4574;51.072;17.174;2022-11-15T09:23:40;59.57;;;36.90;;
9076;SDS011;4574;51.072;17.174;2022-11-15T09:26:09;61.07;;;38.40;;
9076;SDS011;4574;51.072;17.174;2022-11-15T09:28:37;59.90;;;37.80;;
9076;SDS011;4574;51.072;17.174;2022-11-15T09:31:08;56.33;;;37.23;;
9076;SDS011;4574;51.072;17.174;2022-11-15T09:33:37;58.73;;;36.53;;
9076;SDS011;4574;51.072;17.174;2022-11-15T09:36:08;54.00;;;33.00;;
9076;SDS011;4574;51.072;17.174;2022-11-15T09:38:37;49.90;;;30.27;;
9076;SDS011;4574;51.072;17.174;2022-11-15T09:41:12;48.80;;;29.87;;
9076;SDS011;4574;51.072;17.174;2022-11-15T09:43:55;47.50;;;29.80;;
9076;SDS011;4574;51.072;17.174;2022-11-15T09:46:36;46.93;;;29.50;;
9076;SDS011;4574;51.072;17.174;2022-11-15T09:49:11;43.80;;;28.13;;
9076;SDS011;4574;51.072;17.174;2022-11-15T09:51:44;44.33;;;29.37;;
9076;SDS011;4574;51.072;17.174;2022-11-15T09:54:18;40.77;;;26.93;;
9076;SDS011;4574;51.072;17.174;2022-11-15T09:57:14;41.53;;;26.33;;
9076;SDS011;4574;51.072;17.174;2022-11-15T10:00:07;42.50;;;26.40;;
9076;SDS011;4574;51.072;17.174;2022-11-15T10:03:08;42.17;;;26.67;;
9076;SDS011;4574;51.072;17.174;2022-11-15T10:05:40;41.17;;;25.77;;
9076;SDS011;4574;51.072;17.174;2022-11-15T10:08:20;41.47;;;25.03;;
9076;SDS011;4574;51.072;17.174;2022-11-15T10:11:00;42.17;;;28.00;;
9076;SDS011;4574;51.072;17.174;2022-11-15T10:13:52;43.57;;;27.33;;
9076;SDS011;4574;51.072;17.174;2022-11-15T10:16:33;40.50;;;25.73;;
9076;SDS011;4574;51.072;17.174;2022-11-15T10:19:17;45.67;;;26.07;;
9076;SDS011;4574;51.072;17.174;2022-11-15T10:21:54;34.63;;;22.97;;
9076;SDS011;4574;51.072;17.174;2022-11-15T10:24:32;32.87;;;21.13;;
9076;SDS011;4574;51.072;17.174;2022-11-15T10:27:06;26.17;;;19.07;;
9076;SDS011;4574;51.072;17.174;2022-11-15T10:29:42;28.20;;;17.67;;
9076;SDS011;4574;51.072;17.174;2022-11-15T10:32:11;27.13;;;17.63;;
9076;SDS011;4574;51.072;17.174;2022-11-15T10:34:41;26.47;;;18.07;;
9076;SDS011;4574;51.072;17.174;2022-11-15T10:37:09;28.23;;;19.17;;
9076;SDS011;4574;51.072;17.174;2022-11-15T10:39:39;27.97;;;18.83;;
9076;SDS011;4574;51.072;17.174;2022-11-15T10:42:15;26.13;;;17.60;;
9076;SDS011;4574;51.072;17.174;2022-11-15T10:44:44;25.83;;;18.13;;
9076;SDS011;4574;51.072;17.174;2022-11-15T10:50:05;24.40;;;17.50;;
9076;SDS011;4574;51.072;17.174;2022-11-15T10:52:35;26.60;;;17.60;;
9076;SDS011;4574;51.072;17.174;2022-11-15T10:55:23;22.57;;;15.90;;
9076;SDS011;4574;51.072;17.174;2022-11-15T10:57:54;24.67;;;17.23;;
9076;SDS011;4574;51.072;17.174;2022-11-15T11:00:29;25.33;;;15.63;;
9076;SDS011;4574;51.072;17.174;2022-11-15T11:03:00;25.23;;;17.13;;
9076;SDS011;4574;51.072;17.174;2022-11-15T11:05:31;26.43;;;17.37;;
9076;SDS011;4574;51.072;17.174;2022-11-15T11:08:20;26.93;;;16.97;;
9076;SDS011;4574;51.072;17.174;2022-11-15T11:10:55;21.43;;;16.17;;
9076;SDS011;4574;51.072;17.174;2022-11-15T11:13:29;23.63;;;15.93;;
9076;SDS011;4574;51.072;17.174;2022-11-15T11:16:03;24.47;;;16.33;;
9076;SDS011;4574;51.072;17.174;2022-11-15T11:18:54;22.60;;;15.60;;
9076;SDS011;4574;51.072;17.174;2022-11-15T11:21:35;20.10;;;14.77;;
9076;SDS011;4574;51.072;17.174;2022-11-15T11:24:13;24.27;;;15.80;;
9076;SDS011;4574;51.072;17.174;2022-11-15T11:26:57;19.03;;;14.83;;
9076;SDS011;4574;51.072;17.174;2022-11-15T11:29:49;21.77;;;14.70;;
9076;SDS011;4574;51.072;17.174;2022-11-15T11:32:34;20.83;;;14.27;;
9076;SDS011;4574;51.072;17.174;2022-11-15T11:35:22;23.63;;;15.63;;
9076;SDS011;4574;51.072;17.174;2022-11-15T11:37:56;23.80;;;15.40;;
9076;SDS011;4574;51.072;17.174;2022-11-15T11:40:43;21.97;;;15.37;;
9076;SDS011;4574;51.072;17.174;2022-11-15T11:43:23;25.63;;;16.00;;
9076;SDS011;4574;51.072;17.174;2022-11-15T11:48:48;20.67;;;14.03;;
9076;SDS011;4574;51.072;17.174;2022-11-15T11:51:22;17.73;;;12.60;;
9076;SDS011;4574;51.072;17.174;2022-11-15T11:53:56;15.70;;;12.13;;
9076;SDS011;4574;51.072;17.174;2022-11-15T11:56:29;16.33;;;11.17;;
9076;SDS011;4574;51.072;17.174;2022-11-15T11:59:05;15.47;;;10.73;;
9076;SDS011;4574;51.072;17.174;2022-11-15T12:01:42;16.57;;;11.13;;
9076;SDS011;4574;51.072;17.174;2022-11-15T12:04:13;13.33;;;10.27;;
9076;SDS011;4574;51.072;17.174;2022-11-15T12:06:48;15.93;;;10.30;;
9076;SDS011;4574;51.072;17.174;2022-11-15T12:09:21;14.63;;;10.57;;
9076;SDS011;4574;51.072;17.174;2022-11-15T12:11:58;15.90;;;10.23;;
9076;SDS011;4574;51.072;17.174;2022-11-15T12:14:34;13.80;;;9.63;;
9076;SDS011;4574;51.072;17.174;2022-11-15T12:17:09;16.97;;;10.60;;
9076;SDS011;4574;51.072;17.174;2022-11-15T12:19:38;16.20;;;11.10;;
9076;SDS011;4574;51.072;17.174;2022-11-15T12:22:11;15.27;;;12.23;;
9076;SDS011;4574;51.072;17.174;2022-11-15T12:24:48;15.67;;;11.57;;
9076;SDS011;4574;51.072;17.174;2022-11-15T12:27:26;19.40;;;11.37;;
9076;SDS011;4574;51.072;17.174;2022-11-15T12:30:02;16.30;;;11.43;;
9076;SDS011;4574;51.072;17.174;2022-11-15T12:32:37;16.67;;;11.87;;
9076;SDS011;4574;51.072;17.174;2022-11-15T12:35:20;14.23;;;10.60;;
9076;SDS011;4574;51.072;17.174;2022-11-15T12:37:51;14.37;;;11.30;;
9076;SDS011;4574;51.072;17.174;2022-11-15T12:40:29;13.90;;;10.27;;
9076;SDS011;4574;51.072;17.174;2022-11-15T12:43:01;12.03;;;9.63;;
9076;SDS011;4574;51.072;17.174;2022-11-15T12:46:03;13.53;;;10.37;;
9076;SDS011;4574;51.072;17.174;2022-11-15T12:57:41;14.97;;;10.43;;
9076;SDS011;4574;51.072;17.174;2022-11-15T13:03:25;18.60;;;11.90;;
9076;SDS011;4574;51.072;17.174;2022-11-15T13:05:56;17.77;;;11.93;;
9076;SDS011;4574;51.072;17.174;2022-11-15T13:08:39;16.77;;;12.10;;
9076;SDS011;4574;51.072;17.174;2022-11-15T13:17:20;16.80;;;11.97;;
9076;SDS011;4574;51.072;17.174;2022-11-15T13:20:07;22.07;;;11.70;;
9076;SDS011;4574;51.072;17.174;2022-11-15T13:22:46;15.03;;;11.80;;
9076;SDS011;4574;51.072;17.174;2022-11-15T13:25:19;16.37;;;11.87;;
9076;SDS011;4574;51.072;17.174;2022-11-15T13:28:10;17.13;;;12.63;;
9076;SDS011;4574;51.072;17.174;2022-11-15T13:30:50;19.67;;;12.93;;
9076;SDS011;4574;51.072;17.174;2022-11-15T13:33:20;15.83;;;12.13;;
9076;SDS011;4574;51.072;17.174;2022-11-15T13:35:54;17.23;;;12.83;;
9076;SDS011;4574;51.072;17.174;2022-11-15T13:38:28;17.27;;;12.70;;
9076;SDS011;4574;51.072;17.174;2022-11-15T13:40:58;17.43;;;13.10;;
9076;SDS011;4574;51.072;17.174;2022-11-15T13:43:29;16.17;;;11.93;;
9076;SDS011;4574;51.072;17.174;2022-11-15T13:46:07;18.60;;;12.17;;
9076;SDS011;4574;51.072;17.174;2022-11-15T13:48:39;15.70;;;11.60;;
9076;SDS011;4574;51.072;17.174;2022-11-15T13:51:12;16.70;;;12.23;;
9076;SDS011;4574;51.072;17.174;2022-11-15T13:53:47;17.40;;;12.20;;
9076;SDS011;4574;51.072;17.174;2022-11-15T13:56:19;17.90;;;12.27;;
9076;SDS011;4574;51.072;17.174;2022-11-15T13:58:48;16.83;;;11.77;;
9076;SDS011;4574;51.072;17.174;2022-11-15T14:01:17;21.63;;;14.70;;
9076;SDS011;4574;51.072;17.174;2022-11-15T14:03:49;19.73;;;15.77;;
9076;SDS011;4574;51.072;17.174;2022-11-15T14:06:23;16.60;;;13.10;;
9076;SDS011;4574;51.072;17.174;2022-11-15T14:09:04;16.60;;;12.40;;
9076;SDS011;4574;51.072;17.174;2022-11-15T14:11:53;17.33;;;11.87;;
9076;SDS011;4574;51.072;17.174;2022-11-15T14:14:22;21.70;;;14.23;;
9076;SDS011;4574;51.072;17.174;2022-11-15T14:16:52;14.80;;;12.30;;
9076;SDS011;4574;51.072;17.174;2022-11-15T14:19:38;13.77;;;10.47;;
9076;SDS011;4574;51.072;17.174;2022-11-15T14:22:12;12.20;;;10.77;;
9076;SDS011;4574;51.072;17.174;2022-11-15T14:24:43;14.37;;;11.43;;
9076;SDS011;4574;51.072;17.174;2022-11-15T14:27:23;18.30;;;14.13;;
9076;SDS011;4574;51.072;17.174;2022-11-15T14:29:53;23.60;;;15.47;;
9076;SDS011;4574;51.072;17.174;2022-11-15T14:32:22;17.27;;;13.83;;
9076;SDS011;4574;51.072;17.174;2022-11-15T14:34:54;22.10;;;17.77;;
9076;SDS011;4574;51.072;17.174;2022-11-15T14:37:25;23.27;;;16.60;;
9076;SDS011;4574;51.072;17.174;2022-11-15T14:39:58;20.57;;;16.97;;
9076;SDS011;4574;51.072;17.174;2022-11-15T14:42:26;17.97;;;13.60;;
9076;SDS011;4574;51.072;17.174;2022-11-15T14:44:55;15.13;;;11.73;;
9076;SDS011;4574;51.072;17.174;2022-11-15T14:47:23;16.90;;;11.70;;
9076;SDS011;4574;51.072;17.174;2022-11-15T14:49:52;81.60;;;38.33;;
9076;SDS011;4574;51.072;17.174;2022-11-15T14:52:24;74.40;;;39.07;;
9076;SDS011;4574;51.072;17.174;2022-11-15T14:54:58;49.73;;;27.30;;
9076;SDS011;4574;51.072;17.174;2022-11-15T14:57:27;32.53;;;19.37;;
9076;SDS011;4574;51.072;17.174;2022-11-15T14:59:56;23.40;;;16.07;;
9076;SDS011;4574;51.072;17.174;2022-11-15T15:02:25;22.87;;;15.83;;
9076;SDS011;4574;51.072;17.174;2022-11-15T15:04:54;26.77;;;17.77;;
9076;SDS011;4574;51.072;17.174;2022-11-15T15:07:28;46.43;;;27.77;;
9076;SDS011;4574;51.072;17.174;2022-11-15T15:09:57;65.53;;;40.60;;
9076;SDS011;4574;51.072;17.174;2022-11-15T15:12:45;146.97;;;92.37;;
9076;SDS011;4574;51.072;17.174;2022-11-15T15:15:14;90.80;;;53.30;;
9076;SDS011;4574;51.072;17.174;2022-11-15T15:17:45;48.23;;;27.73;;
9076;SDS011;4574;51.072;17.174;2022-11-15T15:20:14;30.33;;;20.43;;
9076;SDS011;4574;51.072;17.174;2022-11-15T15:22:44;30.70;;;20.13;;
9076;SDS011;4574;51.072;17.174;2022-11-15T15:25:19;31.73;;;21.67;;
9076;SDS011;4574;51.072;17.174;2022-11-15T15:27:50;32.57;;;21.50;;
9076;SDS011;4574;51.072;17.174;2022-11-15T15:30:18;29.50;;;19.57;;
9076;SDS011;4574;51.072;17.174;2022-11-15T15:32:47;30.83;;;20.70;;
9076;SDS011;4574;51.072;17.174;2022-11-15T15:35:16;36.57;;;24.93;;
9076;SDS011;4574;51.072;17.174;2022-11-15T15:37:47;38.60;;;29.80;;